sensor_id;sensor_type;location;lat;lon;timestamp;temperature;humidity
11246;DHT22;59870;50.106;8.580;2022-10-16T01:20:30;20.00;99.90
11246;DHT22;59870;50.106;8.580;2022-10-16T04:15:16;19.90;99.90
11246;DHT22;59870;50.106;8.580;2022-10-16T04:17:43;19.90;99.90
11246;DHT22;59870;50.106;8.580;2022-10-16T04:20:10;20.20;99.90
11246;DHT22;59870;50.106;8.580;2022-10-16T04:22:38;19.90;99.90
11246;DHT22;59870;50.106;8.580;2022-10-16T04:25:06;19.90;99.90
11246;DHT22;59870;50.106;8.580;2022-10-16T04:27:33;20.00;99.90
11246;DHT22;59870;50.106;8.580;2022-10-16T04:30:01;20.20;99.90
11246;DHT22;59870;50.106;8.580;2022-10-16T04:32:29;20.00;99.90
11246;DHT22;59870;50.106;8.580;2022-10-16T04:34:57;20.20;99.90
11246;DHT22;59870;50.106;8.580;2022-10-16T04:37:25;20.20;99.90
11246;DHT22;59870;50.106;8.580;2022-10-16T04:39:54;20.10;99.90
11246;DHT22;59870;50.106;8.580;2022-10-16T04:42:21;20.00;99.90
11246;DHT22;59870;50.106;8.580;2022-10-16T04:44:48;20.20;99.90
11246;DHT22;59870;50.106;8.580;2022-10-16T04:47:16;19.90;99.90
11246;DHT22;59870;50.106;8.580;2022-10-16T04:49:43;19.90;99.90
11246;DHT22;59870;50.106;8.580;2022-10-16T04:52:10;19.90;99.90
11246;DHT22;59870;50.106;8.580;2022-10-16T04:54:38;19.90;99.90
11246;DHT22;59870;50.106;8.580;2022-10-16T04:57:05;20.20;99.90
11246;DHT22;59870;50.106;8.580;2022-10-16T04:59:32;19.90;99.90
11246;DHT22;59870;50.106;8.580;2022-10-16T05:02:00;19.90;99.90
11246;DHT22;59870;50.106;8.580;2022-10-16T05:04:27;19.90;99.90
11246;DHT22;59870;50.106;8.580;2022-10-16T05:06:54;20.20;99.90
11246;DHT22;59870;50.106;8.580;2022-10-16T05:09:22;19.90;99.90
11246;DHT22;59870;50.106;8.580;2022-10-16T05:11:49;19.90;99.90
11246;DHT22;59870;50.106;8.580;2022-10-16T05:14:17;19.90;99.90
11246;DHT22;59870;50.106;8.580;2022-10-16T05:16:45;19.90;99.90
11246;DHT22;59870;50.106;8.580;2022-10-16T05:19:14;20.10;99.90
11246;DHT22;59870;50.106;8.580;2022-10-16T05:21:54;20.10;99.90
11246;DHT22;59870;50.106;8.580;2022-10-16T05:24:21;20.10;99.90
11246;DHT22;59870;50.106;8.580;2022-10-16T05:26:50;20.10;99.90
11246;DHT22;59870;50.106;8.580;2022-10-16T05:29:17;20.00;99.90
11246;DHT22;59870;50.106;8.580;2022-10-16T05:31:45;20.10;99.90
11246;DHT22;59870;50.106;8.580;2022-10-16T05:34:12;20.00;99.90
11246;DHT22;59870;50.106;8.580;2022-10-16T05:36:39;20.00;99.90
11246;DHT22;59870;50.106;8.580;2022-10-16T05:39:07;20.00;99.90
11246;DHT22;59870;50.106;8.580;2022-10-16T05:41:34;20.00;99.90
11246;DHT22;59870;50.106;8.580;2022-10-16T05:44:05;19.90;99.90
11246;DHT22;59870;50.106;8.580;2022-10-16T05:46:33;19.90;99.90
11246;DHT22;59870;50.106;8.580;2022-10-16T05:49:01;20.10;99.90
11246;DHT22;59870;50.106;8.580;2022-10-16T05:51:29;19.90;99.90
11246;DHT22;59870;50.106;8.580;2022-10-16T05:53:57;19.90;99.90
11246;DHT22;59870;50.106;8.580;2022-10-16T05:56:25;19.90;99.90
11246;DHT22;59870;50.106;8.580;2022-10-16T05:58:52;19.90;99.90
11246;DHT22;59870;50.106;8.580;2022-10-16T06:01:20;19.90;99.90
11246;DHT22;59870;50.106;8.580;2022-10-16T06:03:51;19.90;99.90
11246;DHT22;59870;50.106;8.580;2022-10-16T06:06:44;19.90;99.90
11246;DHT22;59870;50.106;8.580;2022-10-16T06:09:11;19.90;99.90
11246;DHT22;59870;50.106;8.580;2022-10-16T06:11:39;20.00;99.90
11246;DHT22;59870;50.106;8.580;2022-10-16T06:14:08;20.00;99.90
11246;DHT22;59870;50.106;8.580;2022-10-16T06:16:37;20.00;99.90
11246;DHT22;59870;50.106;8.580;2022-10-16T06:19:05;19.90;99.90
11246;DHT22;59870;50.106;8.580;2022-10-16T06:21:33;20.20;99.90
11246;DHT22;59870;50.106;8.580;2022-10-16T06:24:01;19.90;99.90
11246;DHT22;59870;50.106;8.580;2022-10-16T06:26:30;20.00;99.90
11246;DHT22;59870;50.106;8.580;2022-10-16T06:28:59;20.10;99.90
11246;DHT22;59870;50.106;8.580;2022-10-16T06:31:28;20.10;99.90
11246;DHT22;59870;50.106;8.580;2022-10-16T06:33:58;19.90;99.90
11246;DHT22;59870;50.106;8.580;2022-10-16T06:36:27;19.90;99.90
11246;DHT22;59870;50.106;8.580;2022-10-16T06:38:54;19.90;99.90
11246;DHT22;59870;50.106;8.580;2022-10-16T06:41:22;19.90;99.90
11246;DHT22;59870;50.106;8.580;2022-10-16T06:43:50;19.90;99.90
11246;DHT22;59870;50.106;8.580;2022-10-16T06:46:23;19.70;99.90
11246;DHT22;59870;50.106;8.580;2022-10-16T06:48:52;20.10;99.90
11246;DHT22;59870;50.106;8.580;2022-10-16T06:51:22;19.90;99.90
11246;DHT22;59870;50.106;8.580;2022-10-16T06:53:54;20.00;99.90
11246;DHT22;59870;50.106;8.580;2022-10-16T06:56:32;20.00;99.90
11246;DHT22;59870;50.106;8.580;2022-10-16T06:59:00;20.00;99.90
11246;DHT22;59870;50.106;8.580;2022-10-16T07:01:28;20.00;99.90
11246;DHT22;59870;50.106;8.580;2022-10-16T07:03:56;20.20;99.90
11246;DHT22;59870;50.106;8.580;2022-10-16T07:06:25;20.00;99.90
11246;DHT22;59870;50.106;8.580;2022-10-16T07:08:57;20.00;99.90
11246;DHT22;59870;50.106;8.580;2022-10-16T07:11:27;20.00;99.90
11246;DHT22;59870;50.106;8.580;2022-10-16T07:13:56;20.20;99.90
11246;DHT22;59870;50.106;8.580;2022-10-16T07:16:25;20.20;99.90
11246;DHT22;59870;50.106;8.580;2022-10-16T07:18:59;20.00;99.90
11246;DHT22;59870;50.106;8.580;2022-10-16T07:21:31;20.10;99.90
11246;DHT22;59870;50.106;8.580;2022-10-16T07:24:04;20.10;99.90
11246;DHT22;59870;50.106;8.580;2022-10-16T07:26:34;20.20;99.90
11246;DHT22;59870;50.106;8.580;2022-10-16T07:29:02;20.20;99.90
11246;DHT22;59870;50.106;8.580;2022-10-16T07:31:31;20.20;99.90
11246;DHT22;59870;50.106;8.580;2022-10-16T07:34:00;20.20;99.90
11246;DHT22;59870;50.106;8.580;2022-10-16T07:36:28;20.40;99.90
11246;DHT22;59870;50.106;8.580;2022-10-16T07:38:55;20.20;99.90
11246;DHT22;59870;50.106;8.580;2022-10-16T07:41:27;20.20;99.90
11246;DHT22;59870;50.106;8.580;2022-10-16T07:43:55;20.20;99.90
11246;DHT22;59870;50.106;8.580;2022-10-16T07:46:27;20.20;99.90
11246;DHT22;59870;50.106;8.580;2022-10-16T07:48:55;20.20;99.90
11246;DHT22;59870;50.106;8.580;2022-10-16T07:51:24;20.50;99.90
11246;DHT22;59870;50.106;8.580;2022-10-16T07:53:52;20.50;99.90
11246;DHT22;59870;50.106;8.580;2022-10-16T07:56:20;20.30;99.90
11246;DHT22;59870;50.106;8.580;2022-10-16T07:58:48;20.30;99.90
11246;DHT22;59870;50.106;8.580;2022-10-16T08:01:18;20.50;99.90
11246;DHT22;59870;50.106;8.580;2022-10-16T08:03:50;20.40;99.90
11246;DHT22;59870;50.106;8.580;2022-10-16T08:06:19;20.40;99.90
11246;DHT22;59870;50.106;8.580;2022-10-16T08:08:55;20.60;99.90
11246;DHT22;59870;50.106;8.580;2022-10-16T08:11:22;20.60;99.90
11246;DHT22;59870;50.106;8.580;2022-10-16T08:13:50;20.60;99.90
11246;DHT22;59870;50.106;8.580;2022-10-16T08:16:18;20.70;99.90
11246;DHT22;59870;50.106;8.580;2022-10-16T08:18:46;20.50;99.90
11246;DHT22;59870;50.106;8.580;2022-10-16T08:21:15;20.50;99.90
11246;DHT22;59870;50.106;8.580;2022-10-16T08:23:49;20.70;99.90
11246;DHT22;59870;50.106;8.580;2022-10-16T08:26:25;20.70;99.90
11246;DHT22;59870;50.106;8.580;2022-10-16T08:28:54;20.60;99.90
11246;DHT22;59870;50.106;8.580;2022-10-16T08:31:22;20.80;99.90
11246;DHT22;59870;50.106;8.580;2022-10-16T08:33:51;20.60;99.90
11246;DHT22;59870;50.106;8.580;2022-10-16T08:36:19;20.60;99.90
11246;DHT22;59870;50.106;8.580;2022-10-16T08:38:50;20.80;99.90
11246;DHT22;59870;50.106;8.580;2022-10-16T09:20:40;20.80;99.90
11246;DHT22;59870;50.106;8.580;2022-10-16T09:26:14;20.80;99.90
11246;DHT22;59870;50.106;8.580;2022-10-16T09:28:46;21.00;99.90
11246;DHT22;59870;50.106;8.580;2022-10-16T09:31:20;20.70;99.90
11246;DHT22;59870;50.106;8.580;2022-10-16T09:33:53;20.70;99.90
11246;DHT22;59870;50.106;8.580;2022-10-16T09:36:28;21.00;99.90
11246;DHT22;59870;50.106;8.580;2022-10-16T09:39:06;20.80;99.90
11246;DHT22;59870;50.106;8.580;2022-10-16T09:41:36;20.80;99.90
11246;DHT22;59870;50.106;8.580;2022-10-16T09:44:14;21.00;99.90
11246;DHT22;59870;50.106;8.580;2022-10-16T09:46:43;20.80;99.90
11246;DHT22;59870;50.106;8.580;2022-10-16T09:49:24;20.90;99.90
11246;DHT22;59870;50.106;8.580;2022-10-16T09:52:12;20.90;99.90
11246;DHT22;59870;50.106;8.580;2022-10-16T09:55:01;21.20;99.90
11246;DHT22;59870;50.106;8.580;2022-10-16T09:57:29;21.00;99.90
11246;DHT22;59870;50.106;8.580;2022-10-16T09:59:58;21.00;99.90
11246;DHT22;59870;50.106;8.580;2022-10-16T10:02:36;21.30;99.90
11246;DHT22;59870;50.106;8.580;2022-10-16T10:05:17;21.00;99.90
11246;DHT22;59870;50.106;8.580;2022-10-16T10:07:45;21.10;99.90
11246;DHT22;59870;50.106;8.580;2022-10-16T10:10:30;21.30;99.90
11246;DHT22;59870;50.106;8.580;2022-10-16T10:12:58;21.10;99.90
11246;DHT22;59870;50.106;8.580;2022-10-16T10:15:33;21.40;99.90
11246;DHT22;59870;50.106;8.580;2022-10-16T10:18:02;21.50;99.90
11246;DHT22;59870;50.106;8.580;2022-10-16T10:20:35;21.30;99.90
11246;DHT22;59870;50.106;8.580;2022-10-16T10:23:21;21.40;99.90
11246;DHT22;59870;50.106;8.580;2022-10-16T10:26:00;21.60;99.90
11246;DHT22;59870;50.106;8.580;2022-10-16T10:34:54;21.50;99.90
11246;DHT22;59870;50.106;8.580;2022-10-16T10:37:39;21.50;99.90
11246;DHT22;59870;50.106;8.580;2022-10-16T10:40:29;21.60;99.90
11246;DHT22;59870;50.106;8.580;2022-10-16T10:46:04;21.60;99.90
11246;DHT22;59870;50.106;8.580;2022-10-16T10:55:00;21.70;99.90
11246;DHT22;59870;50.106;8.580;2022-10-16T10:57:46;21.70;99.90
11246;DHT22;59870;50.106;8.580;2022-10-16T11:03:00;22.00;99.90
11246;DHT22;59870;50.106;8.580;2022-10-16T11:05:45;22.20;99.90
11246;DHT22;59870;50.106;8.580;2022-10-16T11:08:19;22.10;99.90
11246;DHT22;59870;50.106;8.580;2022-10-16T11:11:03;22.10;99.90
11246;DHT22;59870;50.106;8.580;2022-10-16T11:13:38;22.20;99.90
11246;DHT22;59870;50.106;8.580;2022-10-16T11:16:28;22.20;99.90
11246;DHT22;59870;50.106;8.580;2022-10-16T11:19:04;22.30;99.90
11246;DHT22;59870;50.106;8.580;2022-10-16T11:21:48;22.40;99.90
11246;DHT22;59870;50.106;8.580;2022-10-16T11:24:22;22.40;99.90
11246;DHT22;59870;50.106;8.580;2022-10-16T11:26:52;22.60;99.90
11246;DHT22;59870;50.106;8.580;2022-10-16T11:29:26;22.70;99.90
11246;DHT22;59870;50.106;8.580;2022-10-16T11:32:10;22.60;99.90
11246;DHT22;59870;50.106;8.580;2022-10-16T11:34:47;22.50;99.90
11246;DHT22;59870;50.106;8.580;2022-10-16T11:37:20;22.60;99.90
11246;DHT22;59870;50.106;8.580;2022-10-16T11:39:52;22.90;99.90
11246;DHT22;59870;50.106;8.580;2022-10-16T11:42:33;22.90;99.90
11246;DHT22;59870;50.106;8.580;2022-10-16T11:47:40;22.80;99.90
11246;DHT22;59870;50.106;8.580;2022-10-16T11:50:43;22.80;99.90
11246;DHT22;59870;50.106;8.580;2022-10-16T11:55:49;22.80;99.80
11246;DHT22;59870;50.106;8.580;2022-10-16T11:58:37;23.10;99.90
11246;DHT22;59870;50.106;8.580;2022-10-16T12:04:25;23.00;99.80
11246;DHT22;59870;50.106;8.580;2022-10-16T12:07:07;23.10;99.70
11246;DHT22;59870;50.106;8.580;2022-10-16T12:09:40;23.10;99.80
11246;DHT22;59870;50.106;8.580;2022-10-16T12:15:26;23.10;99.70
11246;DHT22;59870;50.106;8.580;2022-10-16T12:18:22;23.00;99.90
11246;DHT22;59870;50.106;8.580;2022-10-16T12:20:58;23.00;99.90
11246;DHT22;59870;50.106;8.580;2022-10-16T12:23:33;23.00;99.80
11246;DHT22;59870;50.106;8.580;2022-10-16T12:26:39;23.20;99.90
11246;DHT22;59870;50.106;8.580;2022-10-16T12:29:45;23.00;99.90
11246;DHT22;59870;50.106;8.580;2022-10-16T12:32:35;23.10;99.50
11246;DHT22;59870;50.106;8.580;2022-10-16T12:35:28;23.20;99.20
11246;DHT22;59870;50.106;8.580;2022-10-16T12:38:08;23.30;98.90
11246;DHT22;59870;50.106;8.580;2022-10-16T12:40:41;23.30;99.10
11246;DHT22;59870;50.106;8.580;2022-10-16T12:43:25;23.50;99.30
11246;DHT22;59870;50.106;8.580;2022-10-16T12:46:02;23.30;99.40
11246;DHT22;59870;50.106;8.580;2022-10-16T12:48:29;23.60;99.10
11246;DHT22;59870;50.106;8.580;2022-10-16T12:51:36;23.40;99.20
11246;DHT22;59870;50.106;8.580;2022-10-16T12:54:10;23.40;99.50
11246;DHT22;59870;50.106;8.580;2022-10-16T12:59:53;23.50;99.10
11246;DHT22;59870;50.106;8.580;2022-10-16T13:08:39;23.60;98.40
11246;DHT22;59870;50.106;8.580;2022-10-16T13:11:20;23.70;97.80
11246;DHT22;59870;50.106;8.580;2022-10-16T13:17:11;23.70;98.50
11246;DHT22;59870;50.106;8.580;2022-10-16T13:20:01;23.90;98.40
11246;DHT22;59870;50.106;8.580;2022-10-16T13:22:55;23.70;97.80
11246;DHT22;59870;50.106;8.580;2022-10-16T13:28:06;23.80;97.90
11246;DHT22;59870;50.106;8.580;2022-10-16T13:30:44;23.80;97.80
11246;DHT22;59870;50.106;8.580;2022-10-16T13:33:30;23.80;97.80
11246;DHT22;59870;50.106;8.580;2022-10-16T13:35:59;23.80;97.90
11246;DHT22;59870;50.106;8.580;2022-10-16T13:38:34;24.00;97.80
11246;DHT22;59870;50.106;8.580;2022-10-16T13:41:18;24.10;97.70
11246;DHT22;59870;50.106;8.580;2022-10-16T13:44:00;23.90;97.10
11246;DHT22;59870;50.106;8.580;2022-10-16T13:46:39;24.10;97.20
11246;DHT22;59870;50.106;8.580;2022-10-16T13:49:14;24.00;97.10
11246;DHT22;59870;50.106;8.580;2022-10-16T13:51:59;24.10;96.90
11246;DHT22;59870;50.106;8.580;2022-10-16T13:54:27;24.00;97.00
11246;DHT22;59870;50.106;8.580;2022-10-16T13:57:07;24.00;97.00
11246;DHT22;59870;50.106;8.580;2022-10-16T13:59:56;24.20;96.80
11246;DHT22;59870;50.106;8.580;2022-10-16T14:02:35;24.20;96.90
11246;DHT22;59870;50.106;8.580;2022-10-16T14:05:17;24.10;96.90
11246;DHT22;59870;50.106;8.580;2022-10-16T14:07:49;24.30;97.10
11246;DHT22;59870;50.106;8.580;2022-10-16T14:10:22;24.10;96.50
11246;DHT22;59870;50.106;8.580;2022-10-16T14:13:03;24.00;96.40
11246;DHT22;59870;50.106;8.580;2022-10-16T14:15:35;24.00;96.50
11246;DHT22;59870;50.106;8.580;2022-10-16T14:18:05;24.10;96.40
11246;DHT22;59870;50.106;8.580;2022-10-16T14:20:39;24.10;96.20
11246;DHT22;59870;50.106;8.580;2022-10-16T14:23:21;24.10;96.10
11246;DHT22;59870;50.106;8.580;2022-10-16T14:28:38;24.30;96.90
11246;DHT22;59870;50.106;8.580;2022-10-16T14:33:46;24.20;96.60
11246;DHT22;59870;50.106;8.580;2022-10-16T14:36:15;24.20;96.50
11246;DHT22;59870;50.106;8.580;2022-10-16T14:39:02;24.20;96.60
11246;DHT22;59870;50.106;8.580;2022-10-16T14:41:43;24.00;96.70
11246;DHT22;59870;50.106;8.580;2022-10-16T14:44:12;24.00;96.80
11246;DHT22;59870;50.106;8.580;2022-10-16T14:46:41;24.20;97.40
11246;DHT22;59870;50.106;8.580;2022-10-16T14:51:41;24.30;96.60
11246;DHT22;59870;50.106;8.580;2022-10-16T14:54:09;24.30;96.50
11246;DHT22;59870;50.106;8.580;2022-10-16T14:56:53;24.30;96.80
11246;DHT22;59870;50.106;8.580;2022-10-16T15:01:51;24.40;97.30
11246;DHT22;59870;50.106;8.580;2022-10-16T15:04:19;24.10;96.80
11246;DHT22;59870;50.106;8.580;2022-10-16T15:06:46;24.10;96.80
11246;DHT22;59870;50.106;8.580;2022-10-16T15:09:15;24.20;96.80
11246;DHT22;59870;50.106;8.580;2022-10-16T15:11:42;24.10;96.60
11246;DHT22;59870;50.106;8.580;2022-10-16T15:14:13;24.10;96.60
11246;DHT22;59870;50.106;8.580;2022-10-16T15:16:46;24.10;96.80
11246;DHT22;59870;50.106;8.580;2022-10-16T15:19:13;24.20;96.70
11246;DHT22;59870;50.106;8.580;2022-10-16T15:21:40;24.20;96.60
11246;DHT22;59870;50.106;8.580;2022-10-16T15:24:11;24.40;96.50
11246;DHT22;59870;50.106;8.580;2022-10-16T15:26:44;24.30;96.50
11246;DHT22;59870;50.106;8.580;2022-10-16T15:29:13;24.20;96.40
11246;DHT22;59870;50.106;8.580;2022-10-16T15:31:40;24.20;96.40
11246;DHT22;59870;50.106;8.580;2022-10-16T15:34:10;24.10;96.90
11246;DHT22;59870;50.106;8.580;2022-10-16T15:36:38;24.10;97.00
11246;DHT22;59870;50.106;8.580;2022-10-16T15:39:14;24.40;97.10
11246;DHT22;59870;50.106;8.580;2022-10-16T15:41:42;24.10;96.90
11246;DHT22;59870;50.106;8.580;2022-10-16T15:44:09;24.00;96.80
11246;DHT22;59870;50.106;8.580;2022-10-16T15:46:37;24.00;97.00
11246;DHT22;59870;50.106;8.580;2022-10-16T15:49:04;24.30;97.20
11246;DHT22;59870;50.106;8.580;2022-10-16T15:51:32;24.00;97.50
11246;DHT22;59870;50.106;8.580;2022-10-16T15:54:00;24.10;97.70
11246;DHT22;59870;50.106;8.580;2022-10-16T15:56:29;23.90;97.70
11246;DHT22;59870;50.106;8.580;2022-10-16T15:59:00;23.90;97.90
11246;DHT22;59870;50.106;8.580;2022-10-16T16:01:34;23.90;98.00
11246;DHT22;59870;50.106;8.580;2022-10-16T16:04:02;24.10;98.10
11246;DHT22;59870;50.106;8.580;2022-10-16T16:06:46;23.90;97.80
11246;DHT22;59870;50.106;8.580;2022-10-16T16:09:14;23.90;97.60
11246;DHT22;59870;50.106;8.580;2022-10-16T16:11:41;23.90;97.70
11246;DHT22;59870;50.106;8.580;2022-10-16T16:14:13;23.90;97.80
11246;DHT22;59870;50.106;8.580;2022-10-16T16:16:41;23.90;97.90
11246;DHT22;59870;50.106;8.580;2022-10-16T16:19:09;23.90;98.00
11246;DHT22;59870;50.106;8.580;2022-10-16T16:21:39;24.00;98.20
11246;DHT22;59870;50.106;8.580;2022-10-16T16:24:06;24.10;98.30
11246;DHT22;59870;50.106;8.580;2022-10-16T16:26:36;23.80;98.30
11246;DHT22;59870;50.106;8.580;2022-10-16T16:29:07;23.70;98.30
11246;DHT22;59870;50.106;8.580;2022-10-16T16:31:36;23.70;98.40
11246;DHT22;59870;50.106;8.580;2022-10-16T16:34:03;24.00;98.70
11246;DHT22;59870;50.106;8.580;2022-10-16T16:36:31;23.70;98.60
11246;DHT22;59870;50.106;8.580;2022-10-16T16:38:59;24.00;98.80
11246;DHT22;59870;50.106;8.580;2022-10-16T16:41:28;23.70;98.60
11246;DHT22;59870;50.106;8.580;2022-10-16T16:44:08;23.60;98.50
11246;DHT22;59870;50.106;8.580;2022-10-16T16:46:38;23.90;98.70
11246;DHT22;59870;50.106;8.580;2022-10-16T16:49:06;23.60;98.50
11246;DHT22;59870;50.106;8.580;2022-10-16T16:51:34;23.60;98.40
11246;DHT22;59870;50.106;8.580;2022-10-16T16:54:06;23.80;98.40
11246;DHT22;59870;50.106;8.580;2022-10-16T16:56:35;23.60;98.50
11246;DHT22;59870;50.106;8.580;2022-10-16T16:59:02;23.80;98.60
11246;DHT22;59870;50.106;8.580;2022-10-16T17:01:29;23.60;98.30
11246;DHT22;59870;50.106;8.580;2022-10-16T17:03:59;23.70;98.40
11246;DHT22;59870;50.106;8.580;2022-10-16T17:06:29;23.50;98.40
11246;DHT22;59870;50.106;8.580;2022-10-16T17:08:57;23.50;98.40
11246;DHT22;59870;50.106;8.580;2022-10-16T17:11:26;23.80;98.50
11246;DHT22;59870;50.106;8.580;2022-10-16T17:13:55;23.40;98.30
11246;DHT22;59870;50.106;8.580;2022-10-16T17:16:26;23.70;98.50
11246;DHT22;59870;50.106;8.580;2022-10-16T17:18:54;23.50;98.60
11246;DHT22;59870;50.106;8.580;2022-10-16T17:21:21;23.40;98.50
11246;DHT22;59870;50.106;8.580;2022-10-16T17:23:51;23.70;98.70
11246;DHT22;59870;50.106;8.580;2022-10-16T17:26:19;23.40;98.50
11246;DHT22;59870;50.106;8.580;2022-10-16T17:28:54;23.30;98.50
11246;DHT22;59870;50.106;8.580;2022-10-16T17:31:25;23.60;98.80
11246;DHT22;59870;50.106;8.580;2022-10-16T17:33:53;23.60;98.90
11246;DHT22;59870;50.106;8.580;2022-10-16T17:36:21;23.20;98.60
11246;DHT22;59870;50.106;8.580;2022-10-16T17:38:50;23.20;98.70
11246;DHT22;59870;50.106;8.580;2022-10-16T17:41:22;23.20;98.60
11246;DHT22;59870;50.106;8.580;2022-10-16T17:43:50;23.10;98.60
11246;DHT22;59870;50.106;8.580;2022-10-16T17:46:20;23.10;98.70
11246;DHT22;59870;50.106;8.580;2022-10-16T17:48:50;23.40;98.90
11246;DHT22;59870;50.106;8.580;2022-10-16T17:51:25;23.30;98.90
11246;DHT22;59870;50.106;8.580;2022-10-16T17:53:55;23.00;98.80
11246;DHT22;59870;50.106;8.580;2022-10-16T17:56:23;22.90;98.70
11246;DHT22;59870;50.106;8.580;2022-10-16T17:58:53;22.90;99.00
11246;DHT22;59870;50.106;8.580;2022-10-16T18:01:24;22.90;98.80
11246;DHT22;59870;50.106;8.580;2022-10-16T18:03:58;22.90;98.70
11246;DHT22;59870;50.106;8.580;2022-10-16T18:06:26;22.90;98.70
11246;DHT22;59870;50.106;8.580;2022-10-16T18:08:56;22.80;98.50
11246;DHT22;59870;50.106;8.580;2022-10-16T18:11:25;23.00;98.40
11246;DHT22;59870;50.106;8.580;2022-10-16T18:13:55;22.80;98.40
11246;DHT22;59870;50.106;8.580;2022-10-16T18:16:24;22.90;98.40
11246;DHT22;59870;50.106;8.580;2022-10-16T18:18:53;22.90;98.40
11246;DHT22;59870;50.106;8.580;2022-10-16T18:21:21;22.60;98.30
11246;DHT22;59870;50.106;8.580;2022-10-16T18:23:48;22.90;98.30
11246;DHT22;59870;50.106;8.580;2022-10-16T18:26:19;22.50;98.00
11246;DHT22;59870;50.106;8.580;2022-10-16T18:28:47;22.50;98.10
11246;DHT22;59870;50.106;8.580;2022-10-16T18:31:16;22.40;98.20
11246;DHT22;59870;50.106;8.580;2022-10-16T18:33:45;22.40;98.10
11246;DHT22;59870;50.106;8.580;2022-10-16T18:36:25;22.30;98.10
11246;DHT22;59870;50.106;8.580;2022-10-16T18:38:56;22.30;98.00
11246;DHT22;59870;50.106;8.580;2022-10-16T18:41:26;22.30;97.90
11246;DHT22;59870;50.106;8.580;2022-10-16T18:43:53;22.20;97.90
11246;DHT22;59870;50.106;8.580;2022-10-16T18:46:23;22.20;98.10
11246;DHT22;59870;50.106;8.580;2022-10-16T18:48:51;22.30;98.20
11246;DHT22;59870;50.106;8.580;2022-10-16T18:51:32;22.10;98.30
11246;DHT22;59870;50.106;8.580;2022-10-16T18:54:04;22.00;98.50
11246;DHT22;59870;50.106;8.580;2022-10-16T18:56:32;22.00;98.70
11246;DHT22;59870;50.106;8.580;2022-10-16T18:59:01;21.90;98.80
11246;DHT22;59870;50.106;8.580;2022-10-16T19:01:33;21.90;98.60
11246;DHT22;59870;50.106;8.580;2022-10-16T19:04:03;21.90;98.40
11246;DHT22;59870;50.106;8.580;2022-10-16T19:06:37;21.90;98.50
11246;DHT22;59870;50.106;8.580;2022-10-16T19:09:05;21.80;98.10
11246;DHT22;59870;50.106;8.580;2022-10-16T19:11:33;21.90;98.00
11246;DHT22;59870;50.106;8.580;2022-10-16T19:14:06;21.60;97.80
11246;DHT22;59870;50.106;8.580;2022-10-16T19:16:35;21.60;97.90
11246;DHT22;59870;50.106;8.580;2022-10-16T19:19:05;21.80;97.90
11246;DHT22;59870;50.106;8.580;2022-10-16T19:21:36;21.70;97.80
11246;DHT22;59870;50.106;8.580;2022-10-16T19:24:07;21.50;97.80
11246;DHT22;59870;50.106;8.580;2022-10-16T19:26:35;21.70;98.00
11246;DHT22;59870;50.106;8.580;2022-10-16T19:29:09;21.50;97.80
11246;DHT22;59870;50.106;8.580;2022-10-16T19:31:37;21.50;98.20
11246;DHT22;59870;50.106;8.580;2022-10-16T19:34:05;21.30;98.20
11246;DHT22;59870;50.106;8.580;2022-10-16T19:36:35;21.30;97.90
11246;DHT22;59870;50.106;8.580;2022-10-16T19:39:06;21.20;97.90
11246;DHT22;59870;50.106;8.580;2022-10-16T19:41:36;21.20;97.90
11246;DHT22;59870;50.106;8.580;2022-10-16T19:44:06;21.10;98.00
11246;DHT22;59870;50.106;8.580;2022-10-16T19:46:35;21.30;98.00
11246;DHT22;59870;50.106;8.580;2022-10-16T19:49:07;21.10;97.90
11246;DHT22;59870;50.106;8.580;2022-10-16T19:51:35;21.30;98.00
11246;DHT22;59870;50.106;8.580;2022-10-16T19:54:07;21.00;97.70
11246;DHT22;59870;50.106;8.580;2022-10-16T19:56:35;21.00;97.90
11246;DHT22;59870;50.106;8.580;2022-10-16T19:59:05;21.30;97.80
11246;DHT22;59870;50.106;8.580;2022-10-16T20:01:34;20.90;97.80
11246;DHT22;59870;50.106;8.580;2022-10-16T20:04:01;20.80;97.70
11246;DHT22;59870;50.106;8.580;2022-10-16T20:06:30;20.80;97.80
11246;DHT22;59870;50.106;8.580;2022-10-16T20:09:02;20.70;97.70
11246;DHT22;59870;50.106;8.580;2022-10-16T20:11:35;20.70;97.90
11246;DHT22;59870;50.106;8.580;2022-10-16T20:14:03;20.70;98.00
11246;DHT22;59870;50.106;8.580;2022-10-16T20:16:31;20.60;98.00
11246;DHT22;59870;50.106;8.580;2022-10-16T20:18:59;20.60;98.00
11246;DHT22;59870;50.106;8.580;2022-10-16T20:21:30;20.90;98.20
11246;DHT22;59870;50.106;8.580;2022-10-16T20:24:02;20.70;98.20
11246;DHT22;59870;50.106;8.580;2022-10-16T20:26:33;20.50;98.10
11246;DHT22;59870;50.106;8.580;2022-10-16T20:29:02;20.70;98.10
11246;DHT22;59870;50.106;8.580;2022-10-16T20:31:32;20.40;98.00
11246;DHT22;59870;50.106;8.580;2022-10-16T20:34:05;20.70;98.20
11246;DHT22;59870;50.106;8.580;2022-10-16T20:36:33;20.30;98.40
11246;DHT22;59870;50.106;8.580;2022-10-16T20:39:02;20.60;98.40
11246;DHT22;59870;50.106;8.580;2022-10-16T20:41:30;20.30;98.40
11246;DHT22;59870;50.106;8.580;2022-10-16T20:43:59;20.30;98.30
11246;DHT22;59870;50.106;8.580;2022-10-16T20:46:27;20.30;98.20
11246;DHT22;59870;50.106;8.580;2022-10-16T20:48:56;20.20;98.40
11246;DHT22;59870;50.106;8.580;2022-10-16T20:51:42;20.20;98.00
11246;DHT22;59870;50.106;8.580;2022-10-16T20:54:10;20.10;98.00
11246;DHT22;59870;50.106;8.580;2022-10-16T20:56:38;20.10;98.20
11246;DHT22;59870;50.106;8.580;2022-10-16T20:59:06;20.40;98.30
11246;DHT22;59870;50.106;8.580;2022-10-16T21:01:34;20.10;98.30
11246;DHT22;59870;50.106;8.580;2022-10-16T21:04:06;20.00;98.00
11246;DHT22;59870;50.106;8.580;2022-10-16T21:06:36;20.10;98.10
11246;DHT22;59870;50.106;8.580;2022-10-16T21:09:04;20.20;98.10
11246;DHT22;59870;50.106;8.580;2022-10-16T21:11:34;19.90;98.00
11246;DHT22;59870;50.106;8.580;2022-10-16T21:14:04;20.10;98.10
11246;DHT22;59870;50.106;8.580;2022-10-16T21:16:32;20.10;98.20
11246;DHT22;59870;50.106;8.580;2022-10-16T21:19:00;20.00;98.30
11246;DHT22;59870;50.106;8.580;2022-10-16T21:21:34;19.80;98.00
11246;DHT22;59870;50.106;8.580;2022-10-16T21:24:02;19.80;98.30
11246;DHT22;59870;50.106;8.580;2022-10-16T21:26:31;19.80;98.20
11246;DHT22;59870;50.106;8.580;2022-10-16T21:29:04;19.80;98.00
11246;DHT22;59870;50.106;8.580;2022-10-16T21:31:33;19.90;98.20
11246;DHT22;59870;50.106;8.580;2022-10-16T21:34:01;19.70;98.10
11246;DHT22;59870;50.106;8.580;2022-10-16T21:36:33;19.70;98.10
11246;DHT22;59870;50.106;8.580;2022-10-16T21:39:03;19.60;98.00
11246;DHT22;59870;50.106;8.580;2022-10-16T21:41:31;19.60;98.00
11246;DHT22;59870;50.106;8.580;2022-10-16T21:43:59;19.50;98.00
11246;DHT22;59870;50.106;8.580;2022-10-16T21:46:30;19.50;98.30
11246;DHT22;59870;50.106;8.580;2022-10-16T21:49:00;19.50;98.00